createdAt,value
2016-11-30T00:00:07.414Z,969.50
2016-11-30T00:01:07.331Z,969.52
2016-11-30T00:02:07.897Z,969.49
2016-11-30T00:03:07.441Z,969.56
2016-11-30T00:04:08.014Z,969.54
2016-11-30T00:05:07.548Z,969.49
2016-11-30T00:06:08.133Z,969.53
2016-11-30T00:07:07.678Z,969.54
2016-11-30T00:08:08.269Z,969.49
2016-11-30T00:09:07.874Z,969.53
2016-11-30T00:10:07.475Z,969.53
2016-11-30T00:11:07.912Z,969.54
2016-11-30T00:12:07.893Z,969.50
2016-11-30T00:13:07.587Z,969.56
2016-11-30T00:14:08.155Z,969.53
2016-11-30T00:15:07.790Z,969.58
2016-11-30T00:16:07.325Z,969.51
2016-11-30T00:17:08.105Z,969.55
2016-11-30T00:18:07.912Z,969.52
2016-11-30T00:19:08.178Z,969.56
2016-11-30T00:20:07.737Z,969.56
2016-11-30T00:21:09.181Z,969.56
2016-11-30T00:22:07.803Z,969.55
2016-11-30T00:23:07.293Z,969.55
2016-11-30T00:24:07.919Z,969.52
2016-11-30T00:25:08.626Z,969.51
2016-11-30T00:26:08.269Z,969.49
2016-11-30T00:27:08.300Z,969.51
2016-11-30T00:28:07.360Z,969.50
2016-11-30T00:29:07.976Z,969.52
2016-11-30T00:30:07.602Z,969.55
2016-11-30T00:31:08.297Z,969.59
2016-11-30T00:32:09.301Z,969.56
2016-11-30T00:33:07.740Z,969.61
2016-11-30T00:34:07.670Z,969.57
2016-11-30T00:35:07.422Z,969.55
2016-11-30T00:36:08.081Z,969.53
2016-11-30T00:37:07.602Z,969.53
2016-11-30T00:38:08.253Z,969.58
2016-11-30T00:39:07.873Z,969.57
2016-11-30T00:40:07.401Z,969.58
2016-11-30T00:41:08.069Z,969.55
2016-11-30T00:42:07.631Z,969.59
2016-11-30T00:43:08.232Z,969.56
2016-11-30T00:44:07.689Z,969.63
2016-11-30T00:45:08.284Z,969.64
2016-11-30T00:46:07.907Z,969.64
2016-11-30T00:47:07.417Z,969.73
2016-11-30T00:48:08.915Z,969.71
2016-11-30T00:49:07.419Z,969.73
2016-11-30T00:50:07.998Z,969.69
2016-11-30T00:51:07.801Z,969.73
2016-11-30T00:52:07.504Z,969.73
2016-11-30T00:53:08.954Z,969.72
2016-11-30T00:54:07.854Z,969.67
2016-11-30T00:55:07.436Z,969.73
2016-11-30T00:56:08.015Z,969.70
2016-11-30T00:57:07.578Z,969.73
2016-11-30T00:58:08.791Z,969.71
2016-11-30T00:59:07.266Z,969.72
2016-11-30T01:00:07.747Z,969.72
2016-11-30T01:01:08.361Z,969.70
2016-11-30T01:02:07.894Z,969.69
2016-11-30T01:03:07.357Z,969.64
2016-11-30T01:04:07.644Z,969.66
2016-11-30T01:05:07.897Z,969.61
2016-11-30T01:06:07.483Z,969.66
2016-11-30T01:07:07.932Z,969.63
2016-11-30T01:08:08.154Z,969.60
2016-11-30T01:09:07.440Z,969.59
2016-11-30T01:10:08.016Z,969.58
2016-11-30T01:11:07.561Z,969.65
2016-11-30T01:12:08.262Z,969.63
2016-11-30T01:13:08.343Z,969.61
2016-11-30T01:14:07.949Z,969.65
2016-11-30T01:15:07.557Z,969.61
2016-11-30T01:16:07.363Z,969.63
2016-11-30T01:17:07.984Z,969.65
2016-11-30T01:18:07.576Z,969.61
2016-11-30T01:19:08.223Z,969.62
2016-11-30T01:20:07.852Z,969.60
2016-11-30T01:21:08.212Z,969.57
2016-11-30T01:22:07.752Z,969.58
2016-11-30T01:23:08.372Z,969.55
2016-11-30T01:24:08.004Z,969.57
2016-11-30T01:25:07.713Z,969.52
2016-11-30T01:26:08.182Z,969.55
2016-11-30T01:27:07.712Z,969.56
2016-11-30T01:28:08.419Z,969.56
2016-11-30T01:29:08.114Z,969.53
2016-11-30T01:30:07.655Z,969.56
2016-11-30T01:31:08.159Z,969.53
2016-11-30T01:32:08.092Z,969.59
2016-11-30T01:33:08.043Z,969.60
2016-11-30T01:34:07.538Z,969.62
2016-11-30T01:35:08.031Z,969.65
2016-11-30T01:36:08.074Z,969.60
2016-11-30T01:37:07.605Z,969.60
2016-11-30T01:38:08.199Z,969.60
2016-11-30T01:39:07.727Z,969.61
2016-11-30T01:40:08.322Z,969.62
2016-11-30T01:41:07.862Z,969.61
2016-11-30T01:42:07.333Z,969.62
2016-11-30T01:43:07.829Z,969.60
2016-11-30T01:44:07.378Z,969.64
2016-11-30T01:45:08.119Z,969.64
2016-11-30T01:46:07.630Z,969.64
2016-11-30T01:47:08.204Z,969.63
2016-11-30T01:48:07.685Z,969.58
2016-11-30T01:49:07.390Z,969.59
2016-11-30T01:50:07.857Z,969.57
2016-11-30T01:51:08.074Z,969.58
2016-11-30T01:52:07.660Z,969.58
2016-11-30T01:53:08.041Z,969.54
2016-11-30T01:54:07.632Z,969.61
2016-11-30T01:55:08.172Z,969.61
2016-11-30T01:56:07.706Z,969.64
2016-11-30T01:57:08.219Z,969.61
2016-11-30T01:58:07.824Z,969.65
2016-11-30T01:59:07.412Z,969.57
2016-11-30T02:00:07.978Z,969.54
2016-11-30T02:01:07.796Z,969.46
2016-11-30T02:02:07.569Z,969.43
2016-11-30T02:03:07.939Z,969.39
2016-11-30T02:04:07.473Z,969.46
2016-11-30T02:05:08.155Z,969.45
2016-11-30T02:06:07.933Z,969.44
2016-11-30T02:07:07.505Z,969.38
2016-11-30T02:08:08.143Z,969.43
2016-11-30T02:09:07.414Z,969.40
2016-11-30T02:10:08.022Z,969.46
2016-11-30T02:11:07.636Z,969.40
2016-11-30T02:12:08.189Z,969.43
2016-11-30T02:13:07.881Z,969.39
2016-11-30T02:14:08.199Z,969.41
2016-11-30T02:15:08.795Z,969.38
2016-11-30T02:16:07.312Z,969.40
2016-11-30T02:17:08.042Z,969.37
2016-11-30T02:18:07.600Z,969.39
2016-11-30T02:19:07.300Z,969.37
2016-11-30T02:20:07.893Z,969.37
2016-11-30T02:21:07.455Z,969.32
2016-11-30T02:22:08.421Z,969.35
2016-11-30T02:23:07.977Z,969.30
2016-11-30T02:24:08.160Z,969.26
2016-11-30T02:25:07.703Z,969.24
2016-11-30T02:26:08.192Z,969.25
2016-11-30T02:27:07.734Z,969.24
2016-11-30T02:28:08.219Z,969.19
2016-11-30T02:29:08.204Z,969.19
2016-11-30T02:30:07.700Z,969.19
2016-11-30T02:31:08.216Z,969.17
2016-11-30T02:32:07.989Z,969.15
2016-11-30T02:33:07.509Z,969.13
2016-11-30T02:34:08.073Z,969.16
2016-11-30T02:35:08.262Z,969.10
2016-11-30T02:36:08.244Z,969.10
2016-11-30T02:37:07.569Z,969.05
2016-11-30T02:38:07.358Z,969.07
2016-11-30T02:39:07.931Z,969.01
2016-11-30T02:40:07.282Z,969.02
2016-11-30T02:41:07.862Z,969.07
2016-11-30T02:42:07.395Z,969.09
2016-11-30T02:43:07.896Z,969.08
2016-11-30T02:44:07.288Z,969.10
2016-11-30T02:45:07.836Z,969.20
2016-11-30T02:46:07.925Z,969.18
2016-11-30T02:47:07.438Z,969.25
2016-11-30T02:48:07.640Z,969.28
2016-11-30T02:49:08.240Z,969.29
2016-11-30T02:50:07.860Z,969.30
2016-11-30T02:51:07.960Z,969.28
2016-11-30T02:52:08.216Z,969.27
2016-11-30T02:53:07.779Z,969.25
2016-11-30T02:54:07.282Z,969.27
2016-11-30T02:55:07.793Z,969.21
2016-11-30T02:56:07.660Z,969.23
2016-11-30T02:57:08.250Z,969.19
2016-11-30T02:58:07.808Z,969.13
2016-11-30T02:59:07.433Z,969.12
2016-11-30T03:00:07.984Z,969.12
2016-11-30T03:01:07.403Z,969.10
2016-11-30T03:02:07.932Z,969.06
2016-11-30T03:03:07.660Z,969.12
2016-11-30T03:04:08.297Z,969.07
2016-11-30T03:05:08.178Z,969.09
2016-11-30T03:06:07.955Z,969.07
2016-11-30T03:07:07.459Z,969.15
2016-11-30T03:08:08.072Z,969.12
2016-11-30T03:09:07.611Z,969.18
2016-11-30T03:10:08.061Z,969.20
2016-11-30T03:11:08.395Z,969.19
2016-11-30T03:12:08.349Z,969.21
2016-11-30T03:13:08.074Z,969.23
2016-11-30T03:14:07.920Z,969.27
2016-11-30T03:15:07.402Z,969.28
2016-11-30T03:16:07.973Z,969.31
2016-11-30T03:17:07.593Z,969.34
2016-11-30T03:18:08.176Z,969.42
2016-11-30T03:19:07.731Z,969.42
2016-11-30T03:20:07.450Z,969.42
2016-11-30T03:21:07.655Z,969.41
2016-11-30T03:22:08.248Z,969.38
2016-11-30T03:23:19.647Z,969.41
2016-11-30T03:24:08.384Z,969.37
2016-11-30T03:25:08.023Z,969.37
2016-11-30T03:26:08.065Z,969.36
2016-11-30T03:27:07.803Z,969.35
2016-11-30T03:28:07.292Z,969.43
2016-11-30T03:29:08.105Z,969.36
2016-11-30T03:30:07.643Z,969.47
2016-11-30T03:31:08.065Z,969.42
2016-11-30T03:32:07.750Z,969.47
2016-11-30T03:33:07.863Z,969.46
2016-11-30T03:34:07.339Z,969.53
2016-11-30T03:35:07.843Z,969.55
2016-11-30T03:36:08.224Z,969.55
2016-11-30T03:37:07.826Z,969.61
2016-11-30T03:38:07.315Z,969.57
2016-11-30T03:39:07.801Z,969.61
2016-11-30T03:40:07.258Z,969.66
2016-11-30T03:41:07.865Z,969.65
2016-11-30T03:42:07.414Z,969.67
2016-11-30T03:43:07.984Z,969.66
2016-11-30T03:44:07.501Z,969.64
2016-11-30T03:45:08.081Z,969.68
2016-11-30T03:46:07.643Z,969.62
2016-11-30T03:47:14.273Z,969.69
2016-11-30T03:48:07.891Z,969.61
2016-11-30T03:49:07.451Z,969.67
2016-11-30T03:50:07.913Z,969.64
2016-11-30T03:51:07.431Z,969.65
2016-11-30T03:52:07.932Z,969.64
2016-11-30T03:53:07.503Z,969.67
2016-11-30T03:54:08.134Z,969.74
2016-11-30T03:55:07.720Z,969.82
2016-11-30T03:56:08.361Z,969.83
2016-11-30T03:57:07.988Z,969.85
2016-11-30T03:58:07.494Z,969.86
2016-11-30T03:59:08.557Z,969.90
2016-11-30T04:00:08.620Z,969.89
2016-11-30T04:01:08.239Z,969.85
2016-11-30T04:02:07.842Z,969.86
2016-11-30T04:03:07.318Z,969.86
2016-11-30T04:04:07.918Z,969.90
2016-11-30T04:05:07.807Z,969.91
2016-11-30T04:06:07.379Z,969.91
2016-11-30T04:07:07.955Z,969.94
2016-11-30T04:08:07.604Z,969.97
2016-11-30T04:09:08.275Z,969.98
2016-11-30T04:10:07.858Z,969.99
2016-11-30T04:11:07.351Z,969.98
2016-11-30T04:12:07.976Z,969.97
2016-11-30T04:13:07.570Z,969.99
2016-11-30T04:14:08.197Z,969.98
2016-11-30T04:15:07.763Z,969.94
2016-11-30T04:16:07.301Z,969.97
2016-11-30T04:17:07.891Z,969.90
2016-11-30T04:18:08.362Z,969.91
2016-11-30T04:19:07.806Z,969.92
2016-11-30T04:20:08.363Z,969.93
2016-11-30T04:21:07.922Z,969.96
2016-11-30T04:22:07.626Z,969.97
2016-11-30T04:23:08.320Z,969.90
2016-11-30T04:24:07.921Z,969.90
2016-11-30T04:25:07.528Z,969.87
2016-11-30T04:26:08.131Z,969.82
2016-11-30T04:27:07.663Z,969.86
2016-11-30T04:28:08.181Z,969.79
2016-11-30T04:29:07.674Z,969.82
2016-11-30T04:30:08.309Z,969.82
2016-11-30T04:31:07.798Z,969.85
2016-11-30T04:32:07.417Z,969.82
2016-11-30T04:33:08.026Z,969.79
2016-11-30T04:34:07.561Z,969.83
2016-11-30T04:35:08.140Z,969.78
2016-11-30T04:36:07.690Z,969.83
2016-11-30T04:37:08.328Z,969.85
2016-11-30T04:38:08.117Z,969.77
2016-11-30T04:39:07.926Z,969.79
2016-11-30T04:40:08.495Z,969.74
2016-11-30T04:41:08.118Z,969.75
2016-11-30T04:42:07.712Z,969.70
2016-11-30T04:43:08.367Z,969.74
2016-11-30T04:44:07.968Z,969.76
2016-11-30T04:45:07.582Z,969.78
2016-11-30T04:46:08.211Z,969.73
2016-11-30T04:47:07.778Z,969.71
2016-11-30T04:48:07.385Z,969.64
2016-11-30T04:49:08.056Z,969.67
2016-11-30T04:50:07.692Z,969.62
2016-11-30T04:51:08.312Z,969.55
2016-11-30T04:52:08.009Z,969.54
2016-11-30T04:53:07.847Z,969.54
2016-11-30T04:54:07.441Z,969.56
2016-11-30T04:55:08.229Z,969.54
2016-11-30T04:56:08.513Z,969.52
2016-11-30T04:57:07.886Z,969.49
2016-11-30T04:58:07.721Z,969.48
2016-11-30T04:59:08.418Z,969.47
2016-11-30T05:00:08.231Z,969.50
2016-11-30T05:01:07.703Z,969.46
2016-11-30T05:02:08.315Z,969.53
2016-11-30T05:03:07.880Z,969.48
2016-11-30T05:04:07.452Z,969.52
2016-11-30T05:05:08.169Z,969.54
2016-11-30T05:06:07.672Z,969.56
2016-11-30T05:07:08.251Z,969.58
2016-11-30T05:08:08.020Z,969.61
2016-11-30T05:09:07.561Z,969.58
2016-11-30T05:10:07.876Z,969.64
2016-11-30T05:11:07.399Z,969.61
2016-11-30T05:12:07.979Z,969.68
2016-11-30T05:13:07.585Z,969.68
2016-11-30T05:14:08.131Z,969.67
2016-11-30T05:15:07.628Z,969.72
2016-11-30T05:16:08.163Z,969.65
2016-11-30T05:17:08.236Z,969.66
2016-11-30T05:18:08.016Z,969.62
2016-11-30T05:19:07.555Z,969.61
2016-11-30T05:20:08.050Z,969.66
2016-11-30T05:21:07.594Z,969.62
2016-11-30T05:22:08.076Z,969.68
2016-11-30T05:23:07.589Z,969.69
2016-11-30T05:24:08.247Z,969.71
2016-11-30T05:25:10.234Z,969.75
2016-11-30T05:26:08.032Z,969.78
2016-11-30T05:27:07.544Z,969.79
2016-11-30T05:28:07.689Z,969.87
2016-11-30T05:29:08.310Z,969.88
2016-11-30T05:30:08.354Z,969.95
2016-11-30T05:31:07.995Z,969.97
2016-11-30T05:32:07.532Z,969.99
2016-11-30T05:33:08.080Z,970.00
2016-11-30T05:34:07.701Z,970.07
2016-11-30T05:35:08.285Z,970.11
2016-11-30T05:36:07.948Z,970.14
2016-11-30T05:37:07.429Z,970.19
2016-11-30T05:38:08.107Z,970.19
2016-11-30T05:39:08.831Z,970.21
2016-11-30T05:40:07.446Z,970.17
2016-11-30T05:41:08.145Z,970.23
2016-11-30T05:42:07.723Z,970.24
2016-11-30T05:43:08.274Z,970.32
2016-11-30T05:44:07.771Z,970.31
2016-11-30T05:45:07.441Z,970.29
2016-11-30T05:46:08.102Z,970.37
2016-11-30T05:47:07.657Z,970.35
2016-11-30T05:48:08.297Z,970.33
2016-11-30T05:49:07.334Z,970.30
2016-11-30T05:50:07.910Z,970.24
2016-11-30T05:51:07.715Z,970.20
2016-11-30T05:52:07.904Z,970.19
2016-11-30T05:53:07.721Z,970.17
2016-11-30T05:54:08.349Z,970.18
2016-11-30T05:55:07.910Z,970.14
2016-11-30T05:56:07.469Z,970.23
2016-11-30T05:57:08.552Z,970.27
2016-11-30T05:58:08.804Z,970.31
2016-11-30T05:59:07.319Z,970.29
2016-11-30T06:00:07.992Z,970.24
2016-11-30T06:01:07.654Z,970.21
2016-11-30T06:02:08.231Z,970.18
2016-11-30T06:03:07.760Z,970.18
2016-11-30T06:04:07.411Z,970.18
2016-11-30T06:05:07.977Z,970.18
2016-11-30T06:06:07.626Z,970.16
2016-11-30T06:07:08.142Z,970.10
2016-11-30T06:08:07.668Z,970.06
2016-11-30T06:09:08.346Z,970.04
2016-11-30T06:10:08.048Z,970.07
2016-11-30T06:11:07.600Z,970.05
2016-11-30T06:12:08.050Z,970.08
2016-11-30T06:13:08.157Z,970.16
2016-11-30T06:14:07.770Z,970.19
2016-11-30T06:15:07.328Z,970.26
2016-11-30T06:16:07.991Z,970.26
2016-11-30T06:17:07.658Z,970.34
2016-11-30T06:18:08.327Z,970.37
2016-11-30T06:19:07.824Z,970.36
2016-11-30T06:20:07.382Z,970.34
2016-11-30T06:21:07.974Z,970.37
2016-11-30T06:22:07.563Z,970.35
2016-11-30T06:23:08.211Z,970.52
2016-11-30T06:24:07.677Z,970.55
2016-11-30T06:25:08.260Z,970.58
2016-11-30T06:26:07.765Z,970.59
2016-11-30T06:27:07.704Z,970.59
2016-11-30T06:28:08.238Z,970.56
2016-11-30T06:29:08.370Z,970.48
2016-11-30T06:30:09.149Z,970.51
2016-11-30T06:31:07.734Z,970.55
2016-11-30T06:32:08.317Z,970.62
2016-11-30T06:33:07.999Z,970.63
2016-11-30T06:34:07.642Z,970.66
2016-11-30T06:35:08.181Z,970.68
2016-11-30T06:36:07.717Z,970.65
2016-11-30T06:37:08.740Z,970.63
2016-11-30T06:38:07.538Z,970.63
2016-11-30T06:39:08.173Z,970.68
2016-11-30T06:40:08.860Z,970.63
2016-11-30T06:41:07.412Z,970.65
2016-11-30T06:42:07.991Z,970.62
2016-11-30T06:43:07.522Z,970.60
2016-11-30T06:44:08.106Z,970.51
2016-11-30T06:45:07.611Z,970.52
2016-11-30T06:46:08.222Z,970.50
2016-11-30T06:47:07.712Z,970.41
2016-11-30T06:48:08.169Z,970.43
2016-11-30T06:49:08.239Z,970.38
2016-11-30T06:50:07.827Z,970.35
2016-11-30T06:51:07.372Z,970.29
2016-11-30T06:52:07.901Z,970.26
2016-11-30T06:53:07.458Z,970.29
2016-11-30T06:54:07.948Z,970.32
2016-11-30T06:55:07.510Z,970.38
2016-11-30T06:56:08.035Z,970.34
2016-11-30T06:57:08.099Z,970.39
2016-11-30T06:58:07.566Z,970.31
2016-11-30T06:59:08.253Z,970.32
2016-11-30T07:00:07.896Z,970.26
2016-11-30T07:01:09.852Z,970.27
2016-11-30T07:02:07.467Z,970.29
2016-11-30T07:03:08.201Z,970.30
2016-11-30T07:04:07.744Z,970.31
2016-11-30T07:05:08.298Z,970.34
2016-11-30T07:06:07.867Z,970.35
2016-11-30T07:07:08.358Z,970.34
2016-11-30T07:08:07.851Z,970.33
2016-11-30T07:09:07.458Z,970.32
2016-11-30T07:10:08.099Z,970.25
2016-11-30T07:11:07.687Z,970.26
2016-11-30T07:12:08.296Z,970.30
2016-11-30T07:13:07.813Z,970.24
2016-11-30T07:14:07.863Z,970.24
2016-11-30T07:15:07.251Z,970.22
2016-11-30T07:16:07.836Z,970.12
2016-11-30T07:17:13.330Z,970.11
2016-11-30T07:18:08.480Z,970.15
2016-11-30T07:19:08.340Z,970.11
2016-11-30T07:20:07.947Z,970.13
2016-11-30T07:21:07.429Z,970.13
2016-11-30T07:22:08.005Z,970.17
2016-11-30T07:23:07.569Z,970.19
2016-11-30T07:24:08.194Z,970.28
2016-11-30T07:25:07.675Z,970.22
2016-11-30T07:26:08.293Z,970.21
2016-11-30T07:27:07.895Z,970.17
2016-11-30T07:28:07.427Z,970.11
2016-11-30T07:29:07.979Z,970.14
2016-11-30T07:30:07.517Z,970.13
2016-11-30T07:31:08.117Z,970.13
2016-11-30T07:32:07.702Z,970.15
2016-11-30T07:33:08.337Z,970.15
2016-11-30T07:34:07.824Z,970.12
2016-11-30T07:35:07.391Z,970.06
2016-11-30T07:36:07.849Z,970.05
2016-11-30T07:37:07.337Z,970.03
2016-11-30T07:38:07.990Z,970.03
2016-11-30T07:39:07.572Z,969.92
2016-11-30T07:40:08.110Z,969.99
2016-11-30T07:41:07.626Z,969.99
2016-11-30T07:42:09.798Z,969.95
2016-11-30T07:43:07.308Z,969.96
2016-11-30T07:44:13.327Z,969.86
2016-11-30T07:45:07.982Z,969.81
2016-11-30T07:46:07.542Z,969.83
2016-11-30T07:47:08.165Z,969.86
2016-11-30T07:48:07.760Z,969.84
2016-11-30T07:49:07.315Z,969.85
2016-11-30T07:50:07.864Z,969.80
2016-11-30T07:51:07.533Z,969.82
2016-11-30T07:52:07.705Z,969.81
2016-11-30T07:53:08.323Z,969.90
2016-11-30T07:54:07.907Z,969.86
2016-11-30T07:55:07.495Z,969.93
2016-11-30T07:56:08.150Z,969.94
2016-11-30T07:57:07.636Z,969.96
2016-11-30T07:58:08.309Z,969.96
2016-11-30T07:59:07.847Z,969.92
2016-11-30T08:00:07.353Z,969.92
2016-11-30T08:01:08.020Z,969.91
2016-11-30T08:02:07.786Z,969.90
2016-11-30T08:03:07.973Z,969.93
2016-11-30T08:04:07.619Z,969.93
2016-11-30T08:05:08.219Z,969.98
2016-11-30T08:06:07.744Z,969.99
2016-11-30T08:07:08.423Z,970.00
2016-11-30T08:08:39.486Z,970.01
2016-11-30T08:09:08.149Z,970.04
2016-11-30T08:10:07.689Z,970.02
2016-11-30T08:11:08.328Z,970.07
2016-11-30T08:12:08.099Z,970.09
2016-11-30T08:13:07.692Z,970.08
2016-11-30T08:14:08.266Z,970.13
2016-11-30T08:15:07.572Z,970.19
2016-11-30T08:16:08.198Z,970.14
2016-11-30T08:17:07.935Z,970.17
2016-11-30T08:18:07.482Z,970.19
2016-11-30T08:19:08.077Z,970.23
2016-11-30T08:20:07.713Z,970.25
2016-11-30T08:21:08.318Z,970.29
2016-11-30T08:22:07.903Z,970.28
2016-11-30T08:23:07.477Z,970.22
2016-11-30T08:24:07.993Z,970.18
2016-11-30T08:25:07.602Z,970.14
2016-11-30T08:26:08.220Z,970.09
2016-11-30T08:27:07.824Z,970.04
2016-11-30T08:28:07.244Z,969.98
2016-11-30T08:29:07.819Z,969.93
2016-11-30T08:30:07.320Z,969.94
2016-11-30T08:31:07.880Z,969.86
2016-11-30T08:32:07.433Z,969.87
2016-11-30T08:33:08.051Z,969.84
2016-11-30T08:34:07.552Z,969.81
2016-11-30T08:35:08.088Z,969.79
2016-11-30T08:36:07.703Z,969.76
2016-11-30T08:37:39.884Z,969.72
2016-11-30T08:38:07.478Z,969.66
2016-11-30T08:39:08.033Z,969.68
2016-11-30T08:40:07.621Z,969.65
2016-11-30T08:41:08.338Z,969.66
2016-11-30T08:42:07.978Z,969.66
2016-11-30T08:43:07.489Z,969.64
2016-11-30T08:44:08.127Z,969.65
2016-11-30T08:45:07.629Z,969.70
2016-11-30T08:46:08.140Z,969.70
2016-11-30T08:47:07.660Z,969.72
2016-11-30T08:48:08.230Z,969.82
2016-11-30T08:49:07.847Z,969.78
2016-11-30T08:50:07.351Z,969.77
2016-11-30T08:51:07.917Z,969.78
2016-11-30T08:52:07.457Z,969.83
2016-11-30T08:53:08.058Z,969.82
2016-11-30T08:54:07.827Z,969.82
2016-11-30T08:55:07.343Z,969.79
2016-11-30T08:56:07.943Z,969.78
2016-11-30T08:57:07.513Z,969.80
2016-11-30T08:58:08.194Z,969.79
2016-11-30T08:59:07.798Z,969.80
2016-11-30T09:00:07.382Z,969.75
2016-11-30T09:01:07.971Z,969.77
2016-11-30T09:02:09.363Z,969.76
2016-11-30T09:03:07.859Z,969.80
2016-11-30T09:04:07.400Z,969.80
2016-11-30T09:05:07.963Z,969.82
2016-11-30T09:06:07.539Z,969.76
2016-11-30T09:07:08.149Z,969.76
2016-11-30T09:08:07.690Z,969.75
2016-11-30T09:09:08.268Z,969.73
2016-11-30T09:10:07.849Z,969.74
2016-11-30T09:11:07.359Z,969.73
2016-11-30T09:12:07.963Z,969.69
2016-11-30T09:13:07.633Z,969.62
2016-11-30T09:14:08.349Z,969.68
2016-11-30T09:15:08.252Z,969.62
2016-11-30T09:16:07.901Z,969.57
2016-11-30T09:17:07.598Z,969.54
2016-11-30T09:18:08.173Z,969.56
2016-11-30T09:19:07.813Z,969.53
2016-11-30T09:20:07.279Z,969.52
2016-11-30T09:21:07.851Z,969.54
2016-11-30T09:22:07.354Z,969.54
2016-11-30T09:23:07.952Z,969.54
2016-11-30T09:24:07.464Z,969.54
2016-11-30T09:25:08.133Z,969.53
2016-11-30T09:26:07.717Z,969.51
2016-11-30T09:27:08.383Z,969.44
2016-11-30T09:28:07.968Z,969.45
2016-11-30T09:29:07.671Z,969.43
2016-11-30T09:30:08.347Z,969.46
2016-11-30T09:31:42.756Z,969.43
2016-11-30T09:32:07.301Z,969.41
2016-11-30T09:33:07.894Z,969.41
2016-11-30T09:34:07.416Z,969.42
2016-11-30T09:35:07.998Z,969.39
2016-11-30T09:36:07.535Z,969.43
2016-11-30T09:37:08.177Z,969.47
2016-11-30T09:38:07.681Z,969.52
2016-11-30T09:39:08.109Z,969.57
2016-11-30T09:40:07.865Z,969.58
2016-11-30T09:41:07.475Z,969.58
2016-11-30T09:42:08.052Z,969.63
2016-11-30T09:43:07.606Z,969.62
2016-11-30T09:44:08.202Z,969.68
2016-11-30T09:45:07.775Z,969.63
2016-11-30T09:46:07.303Z,969.66
2016-11-30T09:47:07.753Z,969.68
2016-11-30T09:48:08.370Z,969.70
2016-11-30T09:49:08.002Z,969.71
2016-11-30T09:50:07.527Z,969.68
2016-11-30T09:51:08.142Z,969.67
2016-11-30T09:52:07.705Z,969.67
2016-11-30T09:53:08.328Z,969.69
2016-11-30T09:54:07.967Z,969.67
2016-11-30T09:55:07.555Z,969.65
2016-11-30T09:56:08.084Z,969.55
2016-11-30T09:57:07.610Z,969.54
2016-11-30T09:58:08.213Z,969.59
2016-11-30T09:59:07.799Z,969.55
2016-11-30T10:00:07.300Z,969.60
2016-11-30T10:01:07.910Z,969.56
2016-11-30T10:02:07.444Z,969.57
2016-11-30T10:03:08.000Z,969.54
2016-11-30T10:04:07.450Z,969.55
2016-11-30T10:05:08.060Z,969.55
2016-11-30T10:06:07.650Z,969.52
2016-11-30T10:07:08.244Z,969.50
2016-11-30T10:08:07.882Z,969.49
2016-11-30T10:09:07.405Z,969.49
2016-11-30T10:10:08.080Z,969.51
2016-11-30T10:11:07.627Z,969.47
2016-11-30T10:12:08.261Z,969.43
2016-11-30T10:13:07.886Z,969.42
2016-11-30T10:14:07.453Z,969.47
2016-11-30T10:15:08.060Z,969.49
2016-11-30T10:16:07.604Z,969.41
2016-11-30T10:17:08.374Z,969.43
2016-11-30T10:18:07.922Z,969.39
2016-11-30T10:19:07.421Z,969.42
2016-11-30T10:20:07.962Z,969.42
2016-11-30T10:21:07.553Z,969.44
2016-11-30T10:22:08.165Z,969.36
2016-11-30T10:23:07.652Z,969.34
2016-11-30T10:24:08.250Z,969.32
2016-11-30T10:25:07.831Z,969.36
2016-11-30T10:26:07.288Z,969.38
2016-11-30T10:27:07.900Z,969.37
2016-11-30T10:28:07.543Z,969.40
2016-11-30T10:29:08.198Z,969.41
2016-11-30T10:30:07.723Z,969.41
2016-11-30T10:31:08.355Z,969.38
2016-11-30T10:32:07.863Z,969.38
2016-11-30T10:33:07.413Z,969.27
2016-11-30T10:34:07.955Z,969.35
2016-11-30T10:35:07.480Z,969.35
2016-11-30T10:36:08.109Z,969.34
2016-11-30T10:37:07.635Z,969.40
2016-11-30T10:38:09.538Z,969.39
2016-11-30T10:39:08.123Z,969.38
2016-11-30T10:40:07.622Z,969.36
2016-11-30T10:41:08.276Z,969.36
2016-11-30T10:42:07.862Z,969.39
2016-11-30T10:43:07.383Z,969.39
2016-11-30T10:44:08.070Z,969.43
2016-11-30T10:45:07.611Z,969.40
2016-11-30T10:46:08.226Z,969.37
2016-11-30T10:47:07.782Z,969.37
2016-11-30T10:48:07.378Z,969.41
2016-11-30T10:49:07.915Z,969.32
2016-11-30T10:50:07.503Z,969.36
2016-11-30T10:51:08.130Z,969.34
2016-11-30T10:52:07.709Z,969.30
2016-11-30T10:53:08.242Z,969.31
2016-11-30T10:54:07.840Z,969.30
2016-11-30T10:55:07.439Z,969.29
2016-11-30T10:56:08.034Z,969.29
2016-11-30T10:57:07.609Z,969.33
2016-11-30T10:58:08.172Z,969.26
2016-11-30T10:59:07.751Z,969.27
2016-11-30T11:00:09.480Z,969.23
2016-11-30T11:01:07.376Z,969.22
2016-11-30T11:02:07.970Z,969.24
2016-11-30T11:03:07.533Z,969.19
2016-11-30T11:04:08.124Z,969.11
2016-11-30T11:05:07.608Z,969.17
2016-11-30T11:06:08.212Z,969.11
2016-11-30T11:07:07.831Z,969.13
2016-11-30T11:08:07.424Z,969.10
2016-11-30T11:09:07.918Z,969.09
2016-11-30T11:10:08.000Z,969.02
2016-11-30T11:11:07.578Z,969.00
2016-11-30T11:12:08.278Z,968.94
2016-11-30T11:13:07.747Z,968.94
2016-11-30T11:14:08.353Z,968.96
2016-11-30T11:15:07.987Z,968.95
2016-11-30T11:16:07.512Z,968.98
2016-11-30T11:17:08.242Z,968.97
2016-11-30T11:18:07.743Z,968.95
2016-11-30T11:19:07.345Z,968.89
2016-11-30T11:20:07.917Z,968.85
2016-11-30T11:21:07.493Z,968.85
2016-11-30T11:22:08.043Z,968.82
2016-11-30T11:23:07.551Z,968.83
2016-11-30T11:24:08.114Z,968.79
2016-11-30T11:25:08.899Z,968.73
2016-11-30T11:26:07.502Z,968.72
2016-11-30T11:27:08.088Z,968.69
2016-11-30T11:28:07.659Z,968.69
2016-11-30T11:29:08.410Z,968.68
2016-11-30T11:30:07.989Z,968.74
2016-11-30T11:31:07.491Z,968.68
2016-11-30T11:32:08.124Z,968.64
2016-11-30T11:33:07.612Z,968.63
2016-11-30T11:34:09.198Z,968.59
2016-11-30T11:35:07.920Z,968.62
2016-11-30T11:36:07.492Z,968.59
2016-11-30T11:37:08.110Z,968.51
2016-11-30T11:38:07.724Z,968.51
2016-11-30T11:39:08.396Z,968.49
2016-11-30T11:40:07.901Z,968.49
2016-11-30T11:41:07.483Z,968.48
2016-11-30T11:42:08.117Z,968.49
2016-11-30T11:43:07.617Z,968.44
2016-11-30T11:44:08.257Z,968.44
2016-11-30T11:45:07.867Z,968.36
2016-11-30T11:46:07.362Z,968.29
2016-11-30T11:47:07.989Z,968.44
2016-11-30T11:48:07.563Z,968.33
2016-11-30T11:49:08.122Z,968.28
2016-11-30T11:50:07.709Z,968.27
2016-11-30T11:51:08.384Z,968.27
2016-11-30T11:52:08.040Z,968.32
2016-11-30T11:53:07.662Z,968.31
2016-11-30T11:54:08.233Z,968.30
2016-11-30T11:55:07.867Z,968.30
2016-11-30T11:56:07.400Z,968.33
2016-11-30T11:57:08.036Z,968.33
2016-11-30T11:58:07.670Z,968.38
2016-11-30T11:59:08.255Z,968.41
2016-11-30T12:00:07.741Z,968.39
2016-11-30T12:01:08.316Z,968.38
2016-11-30T12:02:08.052Z,968.40
2016-11-30T12:03:07.528Z,968.43
2016-11-30T12:04:08.144Z,968.39
2016-11-30T12:05:07.596Z,968.39
2016-11-30T12:06:08.212Z,968.43
2016-11-30T12:07:07.734Z,968.40
2016-11-30T12:08:08.599Z,968.47
2016-11-30T12:09:08.240Z,968.44
2016-11-30T12:10:07.824Z,968.44
2016-11-30T12:11:08.337Z,968.50
2016-11-30T12:12:07.971Z,968.45
2016-11-30T12:13:07.461Z,968.52
2016-11-30T12:14:08.094Z,968.55
2016-11-30T12:15:07.710Z,968.56
2016-11-30T12:16:08.231Z,968.56
2016-11-30T12:17:08.029Z,968.59
2016-11-30T12:18:07.714Z,968.63
2016-11-30T12:19:08.301Z,968.53
2016-11-30T12:20:07.969Z,968.65
2016-11-30T12:21:07.566Z,968.58
2016-11-30T12:22:08.219Z,968.57
2016-11-30T12:23:07.716Z,968.57
2016-11-30T12:24:08.311Z,968.57
2016-11-30T12:25:07.826Z,968.57
2016-11-30T12:26:07.380Z,968.56
2016-11-30T12:27:07.992Z,968.57
2016-11-30T12:28:07.509Z,968.62